createdAt,value
2018-09-08T00:00:10.649Z,97444.64
2018-09-08T00:02:38.088Z,97444.74
2018-09-08T00:05:05.476Z,97438.39
2018-09-08T00:07:32.986Z,97436.73
2018-09-08T00:10:00.411Z,97436.00
2018-09-08T00:12:27.875Z,97439.41
2018-09-08T00:14:54.745Z,97435.80
2018-09-08T00:17:27.838Z,97440.37
2018-09-08T00:20:01.063Z,97436.55
2018-09-08T00:22:34.054Z,97436.25
2018-09-08T00:25:07.078Z,97439.17
2018-09-08T00:27:34.525Z,97442.05
2018-09-08T00:30:01.997Z,97448.56
2018-09-08T00:32:29.505Z,97440.06
2018-09-08T00:34:57.082Z,97450.73
2018-09-08T00:37:24.498Z,97447.52
2018-09-08T00:39:52.018Z,97460.70
2018-09-08T00:42:19.428Z,97455.73
2018-09-08T00:44:46.963Z,97457.48
2018-09-08T00:47:14.408Z,97457.21
2018-09-08T00:49:41.893Z,97455.91
2018-09-08T00:52:09.316Z,97458.84
2018-09-08T00:54:36.755Z,97463.70
2018-09-08T00:57:04.219Z,97455.98
2018-09-08T00:59:31.714Z,97455.22
2018-09-08T01:01:59.104Z,97460.37
2018-09-08T01:04:26.505Z,97466.20
2018-09-08T01:06:54.069Z,97462.56
2018-09-08T01:09:21.527Z,97461.41
2018-09-08T01:11:48.956Z,97459.36
2018-09-08T01:14:16.416Z,97459.52
2018-09-08T01:16:43.842Z,97461.49
2018-09-08T01:19:11.267Z,97466.48
2018-09-08T01:21:38.719Z,97467.23
2018-09-08T01:24:06.232Z,97469.55
2018-09-08T01:26:33.640Z,97462.36
2018-09-08T01:29:02.084Z,97477.05
2018-09-08T01:31:29.518Z,97476.27
2018-09-08T01:33:57.028Z,97474.57
2018-09-08T01:36:24.491Z,97477.27
2018-09-08T01:38:52.564Z,97482.95
2018-09-08T01:41:20.356Z,97479.59
2018-09-08T01:43:47.769Z,97482.61
2018-09-08T01:46:15.206Z,97487.41
2018-09-08T01:48:42.684Z,97482.95
2018-09-08T01:51:10.152Z,97484.51
2018-09-08T01:53:37.603Z,97479.86
2018-09-08T01:56:05.081Z,97488.63
2018-09-08T01:58:32.533Z,97482.36
2018-09-08T02:01:00.021Z,97480.66
2018-09-08T02:03:27.598Z,97486.29
2018-09-08T02:05:55.088Z,97490.38
2018-09-08T02:08:22.541Z,97499.89
2018-09-08T02:10:50.001Z,97495.81
2018-09-08T02:13:17.456Z,97497.50
2018-09-08T02:15:44.862Z,97499.47
2018-09-08T02:18:12.950Z,97501.36
2018-09-08T02:20:40.431Z,97503.05
2018-09-08T02:23:07.921Z,97496.34
2018-09-08T02:25:35.362Z,97500.84
2018-09-08T02:28:03.625Z,97493.98
2018-09-08T02:30:31.031Z,97494.64
2018-09-08T02:32:58.593Z,97490.15
2018-09-08T02:35:26.024Z,97491.33
2018-09-08T02:37:53.425Z,97492.73
2018-09-08T02:40:20.926Z,97487.80
2018-09-08T02:42:48.363Z,97481.39
2018-09-08T02:45:15.845Z,97484.53
2018-09-08T02:47:43.238Z,97487.45
2018-09-08T02:50:19.140Z,97480.70
2018-09-08T02:52:46.080Z,97485.27
2018-09-08T02:55:12.974Z,97485.63
2018-09-08T02:57:39.921Z,97480.36
2018-09-08T03:00:06.786Z,97487.08
2018-09-08T03:02:33.690Z,97488.13
2018-09-08T03:05:00.639Z,97488.66
2018-09-08T03:07:27.574Z,97494.02
2018-09-08T03:09:54.537Z,97487.50
2018-09-08T03:12:21.431Z,97495.64
2018-09-08T03:14:48.364Z,97490.39
2018-09-08T03:17:15.285Z,97491.26
2018-09-08T03:19:42.255Z,97492.36
2018-09-08T03:22:09.147Z,97482.54
2018-09-08T03:24:36.082Z,97491.78
2018-09-08T03:27:03.068Z,97488.02
2018-09-08T03:29:30.760Z,97486.59
2018-09-08T03:31:57.632Z,97484.94
2018-09-08T03:34:24.557Z,97493.59
2018-09-08T03:36:51.497Z,97492.24
2018-09-08T03:39:18.494Z,97497.71
2018-09-08T03:41:45.414Z,97489.45
2018-09-08T03:44:12.307Z,97486.08
2018-09-08T03:46:39.202Z,97489.45
2018-09-08T03:49:06.750Z,97487.65
2018-09-08T03:51:33.606Z,97485.46
2018-09-08T03:54:00.462Z,97487.82
2018-09-08T03:56:27.645Z,97489.17
2018-09-08T03:58:54.550Z,97491.36
2018-09-08T04:01:21.461Z,97490.25
2018-09-08T04:03:48.914Z,97499.98
2018-09-08T04:06:16.354Z,97498.70
2018-09-08T04:08:43.812Z,97507.00
2018-09-08T04:11:11.323Z,97517.33
2018-09-08T04:13:38.723Z,97511.80
2018-09-08T04:16:06.681Z,97514.48
2018-09-08T04:18:34.090Z,97514.44
2018-09-08T04:21:01.535Z,97500.72
2018-09-08T04:23:28.933Z,97501.93
2018-09-08T04:25:56.426Z,97501.97
2018-09-08T04:28:23.885Z,97505.69
2018-09-08T04:30:51.522Z,97509.33
2018-09-08T04:33:18.995Z,97508.76
2018-09-08T04:35:46.462Z,97507.46
2018-09-08T04:38:14.155Z,97508.17
2018-09-08T04:40:41.568Z,97509.09
2018-09-08T04:43:08.987Z,97509.88
2018-09-08T04:45:36.406Z,97507.05
2018-09-08T04:48:03.869Z,97510.61
2018-09-08T04:50:31.318Z,97509.56
2018-09-08T04:52:58.764Z,97506.73
2018-09-08T04:55:26.236Z,97509.86
2018-09-08T04:57:53.706Z,97511.08
2018-09-08T05:00:21.264Z,97512.30
2018-09-08T05:02:48.817Z,97511.15
2018-09-08T05:05:16.281Z,97520.14
2018-09-08T05:07:44.281Z,97518.62
2018-09-08T05:10:11.695Z,97517.09
2018-09-08T05:12:39.146Z,97520.56
2018-09-08T05:15:06.608Z,97522.30
2018-09-08T05:17:34.018Z,97527.73
2018-09-08T05:20:01.429Z,97529.81
2018-09-08T05:22:28.868Z,97536.56
2018-09-08T05:24:56.296Z,97536.41
2018-09-08T05:27:23.876Z,97544.97
2018-09-08T05:29:51.275Z,97545.53
2018-09-08T05:32:18.769Z,97549.84
2018-09-08T05:34:46.224Z,97547.86
2018-09-08T05:37:13.629Z,97542.06
2018-09-08T05:39:41.044Z,97550.09
2018-09-08T05:42:08.496Z,97551.48
2018-09-08T05:44:35.941Z,97544.64
2018-09-08T05:47:03.375Z,97545.58
2018-09-08T05:49:30.855Z,97540.47
2018-09-08T05:51:58.380Z,97538.56
2018-09-08T05:54:25.929Z,97537.24
2018-09-08T05:56:53.397Z,97537.42
2018-09-08T05:59:20.868Z,97527.78
2018-09-08T06:01:48.298Z,97523.56
2018-09-08T06:04:15.709Z,97532.97
2018-09-08T06:06:43.123Z,97531.23
2018-09-08T06:09:10.570Z,97528.30
2018-09-08T06:11:37.962Z,97527.59
2018-09-08T06:14:05.421Z,97527.27
2018-09-08T06:16:32.901Z,97527.07
2018-09-08T06:19:00.349Z,97524.18
2018-09-08T06:21:27.819Z,97526.13
2018-09-08T06:23:55.362Z,97521.75
2018-09-08T06:26:22.860Z,97521.55
2018-09-08T06:28:50.255Z,97525.30
2018-09-08T06:31:17.747Z,97527.86
2018-09-08T06:33:45.285Z,97520.97
2018-09-08T06:36:12.714Z,97523.23
2018-09-08T06:38:40.122Z,97528.55
2018-09-08T06:41:07.596Z,97527.12
2018-09-08T06:43:35.075Z,97517.52
2018-09-08T06:46:02.561Z,97509.67
2018-09-08T06:48:30.009Z,97517.50
2018-09-08T06:50:57.444Z,97511.35
2018-09-08T06:53:24.826Z,97504.94
2018-09-08T06:55:52.360Z,97511.39
2018-09-08T06:58:19.821Z,97512.62
2018-09-08T07:00:47.202Z,97512.22
2018-09-08T07:03:14.729Z,97513.14
2018-09-08T07:05:42.210Z,97514.56
2018-09-08T07:08:09.693Z,97513.11
2018-09-08T07:10:37.088Z,97510.44
2018-09-08T07:13:04.597Z,97515.52
2018-09-08T07:15:32.053Z,97511.48
2018-09-08T07:17:59.031Z,97515.00
2018-09-08T07:20:26.047Z,97515.91
2018-09-08T07:22:53.047Z,97518.17
2018-09-08T07:25:20.018Z,97519.67
2018-09-08T07:27:47.016Z,97520.30
2018-09-08T07:30:13.951Z,97522.68
2018-09-08T07:32:40.989Z,97523.92
2018-09-08T07:35:08.102Z,97520.71
2018-09-08T07:37:35.085Z,97527.62
2018-09-08T07:40:02.495Z,97526.55
2018-09-08T07:42:29.920Z,97526.61
2018-09-08T07:44:57.389Z,97523.83
2018-09-08T07:47:24.818Z,97526.05
2018-09-08T07:49:52.266Z,97525.84
2018-09-08T07:52:20.132Z,97525.94
2018-09-08T07:54:47.549Z,97522.48
2018-09-08T07:57:15.042Z,97532.61
2018-09-08T07:59:42.467Z,97528.58
2018-09-08T08:02:09.936Z,97533.16
2018-09-08T08:04:37.440Z,97535.02
2018-09-08T08:07:04.847Z,97532.56
2018-09-08T08:09:32.318Z,97533.61
2018-09-08T08:11:59.726Z,97537.86
2018-09-08T08:14:27.291Z,97536.86
2018-09-08T08:16:54.720Z,97542.30
2018-09-08T08:19:22.890Z,97549.11
2018-09-08T08:21:50.403Z,97545.01
2018-09-08T08:24:17.825Z,97549.23
2018-09-08T08:26:45.292Z,97537.11
2018-09-08T08:29:12.734Z,97537.77
2018-09-08T08:31:40.229Z,97532.09
2018-09-08T08:43:02.004Z,97525.20
2018-09-08T08:45:29.008Z,97526.44
2018-09-08T08:47:55.982Z,97522.08
2018-09-08T08:50:28.799Z,97524.80
2018-09-08T08:53:08.030Z,97521.70
2018-09-08T08:55:35.501Z,97517.34
2018-09-08T08:58:03.339Z,97519.34
2018-09-08T09:00:30.825Z,97520.12
2018-09-08T09:02:58.355Z,97521.19
2018-09-08T09:05:25.342Z,97526.81
2018-09-08T09:07:53.051Z,97519.41
2018-09-08T09:10:20.023Z,97516.11
2018-09-08T09:12:47.039Z,97512.30
2018-09-08T09:15:14.304Z,97511.69
2018-09-08T09:17:40.963Z,97506.19
2018-09-08T09:23:09.297Z,97506.91
2018-09-08T09:25:36.765Z,97511.81
2018-09-08T09:28:03.727Z,97504.94
2018-09-08T09:30:31.539Z,97504.92
2018-09-08T09:32:58.606Z,97508.80
2018-09-08T09:35:26.104Z,97506.34
2018-09-08T09:37:53.076Z,97504.43
2018-09-08T09:40:20.526Z,97506.69
2018-09-08T09:42:47.547Z,97501.58
2018-09-08T09:45:14.593Z,97501.81
2018-09-08T09:47:41.584Z,97502.26
2018-09-08T09:50:08.566Z,97499.43
2018-09-08T09:52:35.559Z,97511.63
2018-09-08T09:55:03.009Z,97506.14
2018-09-08T09:57:30.018Z,97513.30
2018-09-08T09:59:57.009Z,97513.67
2018-09-08T10:02:24.011Z,97513.08
2018-09-08T10:04:51.480Z,97512.90
2018-09-08T10:07:18.957Z,97507.38
2018-09-08T10:09:46.391Z,97506.05
2018-09-08T10:12:14.892Z,97499.98
2018-09-08T10:14:42.426Z,97494.92
2018-09-08T10:17:09.875Z,97505.41
2018-09-08T10:19:37.431Z,97499.81
2018-09-08T10:22:04.865Z,97511.17
2018-09-08T10:24:32.342Z,97505.25
2018-09-08T10:26:59.766Z,97508.22
2018-09-08T10:29:27.548Z,97513.84
2018-09-08T10:31:55.065Z,97500.83
2018-09-08T10:34:22.555Z,97499.67
2018-09-08T10:36:50.010Z,97496.50
2018-09-08T10:39:17.480Z,97498.84
2018-09-08T10:41:45.381Z,97501.42
2018-09-08T10:44:13.009Z,97499.88
2018-09-08T10:46:40.426Z,97492.89
2018-09-08T10:49:07.933Z,97497.43
2018-09-08T10:51:35.598Z,97498.20
2018-09-08T10:54:03.031Z,97490.03
2018-09-08T10:56:30.641Z,97488.63
2018-09-08T10:58:58.998Z,97488.77
2018-09-08T11:01:26.483Z,97484.66
2018-09-08T11:03:53.927Z,97484.87
2018-09-08T11:06:21.379Z,97482.77
2018-09-08T11:08:48.790Z,97485.08
2018-09-08T11:11:16.203Z,97480.08
2018-09-08T11:13:43.719Z,97482.55
2018-09-08T11:16:11.173Z,97485.73
2018-09-08T11:18:38.224Z,97482.36
2018-09-08T11:21:05.694Z,97483.78
2018-09-08T11:23:32.671Z,97480.75
2018-09-08T11:26:03.057Z,97482.17
2018-09-08T11:28:32.531Z,97484.75
2018-09-08T11:31:01.049Z,97477.80
2018-09-08T11:33:31.037Z,97484.69
2018-09-08T11:35:59.435Z,97481.47
2018-09-08T11:38:27.251Z,97471.34
2018-09-08T11:40:54.329Z,97469.72
2018-09-08T11:43:21.351Z,97476.01
2018-09-08T11:45:49.274Z,97474.98
2018-09-08T11:48:16.226Z,97472.38
2018-09-08T11:50:43.629Z,97468.84
2018-09-08T11:53:11.115Z,97469.67
2018-09-08T11:55:38.613Z,97471.25
2018-09-08T11:58:06.090Z,97471.13
2018-09-08T12:00:33.567Z,97469.09
2018-09-08T12:03:01.073Z,97461.77
2018-09-08T12:05:28.448Z,97465.63
2018-09-08T12:07:55.879Z,97468.84
2018-09-08T12:10:23.307Z,97460.79
2018-09-08T12:12:50.951Z,97461.59
2018-09-08T12:15:18.418Z,97456.28
2018-09-08T12:17:45.959Z,97461.77
2018-09-08T12:20:13.525Z,97461.42
2018-09-08T12:22:41.019Z,97456.28
2018-09-08T12:25:08.565Z,97448.95
2018-09-08T12:27:36.091Z,97453.00
2018-09-08T12:30:03.525Z,97448.55
2018-09-08T12:32:31.030Z,97446.39
2018-09-08T12:34:58.480Z,97448.77
2018-09-08T12:37:25.918Z,97445.44
2018-09-08T12:39:53.422Z,97436.03
2018-09-08T12:42:20.867Z,97438.50
2018-09-08T12:44:48.691Z,97437.39
2018-09-08T12:47:16.224Z,97438.38
2018-09-08T12:49:43.710Z,97440.97
2018-09-08T12:52:11.128Z,97435.08
2018-09-08T12:54:38.699Z,97429.86
2018-09-08T12:57:06.132Z,97432.28
2018-09-08T12:59:33.646Z,97432.44
2018-09-08T13:02:01.144Z,97434.88
2018-09-08T13:04:28.806Z,97434.98
2018-09-08T13:06:56.494Z,97433.30
2018-09-08T13:09:23.929Z,97429.95
2018-09-08T13:11:51.351Z,97433.84
2018-09-08T13:14:18.775Z,97431.48
2018-09-08T13:16:46.347Z,97426.38
2018-09-08T13:19:13.833Z,97422.66
2018-09-08T13:21:41.287Z,97418.84
2018-09-08T13:24:08.800Z,97414.20
2018-09-08T13:26:36.232Z,97416.34
2018-09-08T13:29:03.706Z,97415.36
2018-09-08T13:31:31.128Z,97410.83
2018-09-08T13:33:58.732Z,97406.56
2018-09-08T13:36:26.066Z,97402.55
2018-09-08T13:38:53.473Z,97401.99
2018-09-08T13:41:20.938Z,97399.41
2018-09-08T13:43:48.388Z,97396.93
2018-09-08T13:46:15.879Z,97390.60
2018-09-08T13:48:43.319Z,97400.56
2018-09-08T13:51:11.036Z,97395.61
2018-09-08T13:53:38.047Z,97395.11
2018-09-08T13:56:05.124Z,97390.09
2018-09-08T13:58:32.557Z,97387.05
2018-09-08T14:00:59.576Z,97387.55
2018-09-08T14:03:26.524Z,97386.48
2018-09-08T14:05:53.473Z,97379.45
2018-09-08T14:08:20.457Z,97375.06
2018-09-08T14:10:47.499Z,97375.38
2018-09-08T14:13:14.545Z,97374.25
2018-09-08T14:15:41.571Z,97375.20
2018-09-08T14:18:08.629Z,97373.05
2018-09-08T14:20:35.569Z,97373.16
2018-09-08T14:23:02.603Z,97376.19
2018-09-08T14:25:29.602Z,97367.27
2018-09-08T14:27:56.550Z,97366.55
2018-09-08T14:30:23.585Z,97370.10
2018-09-08T14:32:50.649Z,97370.63
2018-09-08T14:35:17.648Z,97362.81
2018-09-08T14:37:44.667Z,97362.38
2018-09-08T14:40:11.747Z,97356.57
2018-09-08T14:42:38.791Z,97358.24
2018-09-08T14:45:05.778Z,97353.28
2018-09-08T14:47:32.839Z,97350.80
2018-09-08T14:49:59.774Z,97351.09
2018-09-08T14:52:26.814Z,97342.98
2018-09-08T14:54:53.824Z,97341.37
2018-09-08T14:57:20.836Z,97338.67
2018-09-08T14:59:47.771Z,97339.27
2018-09-08T15:02:14.881Z,97334.41
2018-09-08T15:04:42.156Z,97342.48
2018-09-08T15:07:09.186Z,97341.75
2018-09-08T15:09:36.190Z,97334.60
2018-09-08T15:12:03.354Z,97340.09
2018-09-08T15:14:30.478Z,97345.37
2018-09-08T15:16:57.711Z,97340.48
2018-09-08T15:19:24.747Z,97345.18
2018-09-08T15:21:51.899Z,97342.26
2018-09-08T15:24:18.936Z,97338.78
2018-09-08T15:26:45.932Z,97341.53
2018-09-08T15:29:12.948Z,97340.31
2018-09-08T15:31:39.910Z,97343.95
2018-09-08T15:34:06.899Z,97340.20
2018-09-08T15:36:34.335Z,97340.90
2018-09-08T15:39:01.349Z,97344.15
2018-09-08T15:41:28.373Z,97346.02
2018-09-08T15:43:55.367Z,97344.80
2018-09-08T15:46:22.363Z,97345.06
2018-09-08T15:48:49.390Z,97342.54
2018-09-08T15:51:16.458Z,97345.06
2018-09-08T15:53:43.543Z,97341.80
2018-09-08T15:56:10.603Z,97337.31
2018-09-08T15:58:37.966Z,97336.54
2018-09-08T16:01:05.806Z,97338.28
2018-09-08T16:03:32.922Z,97330.28
2018-09-08T16:06:00.058Z,97334.63
2018-09-08T16:08:27.136Z,97339.19
2018-09-08T16:10:54.381Z,97330.36
2018-09-08T16:13:21.426Z,97335.35
2018-09-08T16:15:49.264Z,97333.55
2018-09-08T16:18:16.233Z,97337.56
2018-09-08T16:20:43.323Z,97336.89
2018-09-08T16:23:10.310Z,97334.37
2018-09-08T16:25:37.356Z,97335.16
2018-09-08T16:28:04.373Z,97332.61
2018-09-08T16:30:31.405Z,97327.05
2018-09-08T16:32:58.454Z,97323.09
2018-09-08T16:35:25.481Z,97328.39
2018-09-08T16:37:52.515Z,97329.52
2018-09-08T16:40:19.498Z,97326.75
2018-09-08T16:42:46.671Z,97325.51
2018-09-08T16:45:13.736Z,97321.98
2018-09-08T16:50:05.482Z,97327.13
2018-09-08T16:52:32.597Z,97328.06
2018-09-08T16:54:59.658Z,97326.20
2018-09-08T16:57:26.682Z,97326.19
2018-09-08T16:59:53.717Z,97334.25
2018-09-08T17:02:20.700Z,97327.97
2018-09-08T17:04:47.803Z,97327.43
2018-09-08T17:07:14.757Z,97334.31
2018-09-08T17:09:41.809Z,97327.21
2018-09-08T17:12:08.853Z,97334.66
2018-09-08T17:14:35.825Z,97337.73
2018-09-08T17:17:02.874Z,97332.86
2018-09-08T17:19:29.894Z,97336.91
2018-09-08T17:21:56.925Z,97338.68
2018-09-08T17:24:23.877Z,97328.44
2018-09-08T17:26:50.841Z,97331.84
2018-09-08T17:29:17.837Z,97331.50
2018-09-08T17:31:44.887Z,97335.63
2018-09-08T17:34:12.526Z,97335.56
2018-09-08T17:36:39.493Z,97336.45
2018-09-08T17:39:06.996Z,97335.24
2018-09-08T17:41:34.202Z,97335.51
2018-09-08T17:44:01.205Z,97337.21
2018-09-08T17:46:28.254Z,97343.96
2018-09-08T17:48:55.237Z,97340.35
2018-09-08T17:51:23.018Z,97337.09
2018-09-08T17:53:49.934Z,97342.03
2018-09-08T17:56:16.931Z,97338.00
2018-09-08T17:58:43.992Z,97336.75
2018-09-08T18:01:10.993Z,97337.28
2018-09-08T18:03:38.105Z,97344.30
2018-09-08T18:06:05.327Z,97340.81
2018-09-08T18:08:32.852Z,97343.70
2018-09-08T18:10:59.875Z,97345.95
2018-09-08T18:13:26.902Z,97350.88
2018-09-08T18:15:54.507Z,97347.28
2018-09-08T18:18:21.517Z,97345.23
2018-09-08T18:20:48.544Z,97356.15
2018-09-08T18:23:15.513Z,97353.64
2018-09-08T18:25:42.499Z,97367.12
2018-09-08T18:28:09.526Z,97370.57
2018-09-08T18:30:36.605Z,97373.09
2018-09-08T18:33:03.786Z,97377.78
2018-09-08T18:35:30.762Z,97387.19
2018-09-08T18:37:57.778Z,97383.39
2018-09-08T18:40:24.743Z,97385.49
2018-09-08T18:42:51.751Z,97383.43
2018-09-08T18:45:18.760Z,97386.42
2018-09-08T18:47:45.775Z,97389.57
2018-09-08T18:50:12.813Z,97389.32
2018-09-08T18:52:39.760Z,97387.70
2018-09-08T18:55:06.810Z,97401.69
2018-09-08T18:57:33.786Z,97389.80
2018-09-08T19:00:00.777Z,97392.58
2018-09-08T19:02:27.786Z,97391.14
2018-09-08T19:04:54.813Z,97386.13
2018-09-08T19:07:21.819Z,97390.90
2018-09-08T19:09:48.794Z,97388.98
2018-09-08T19:12:15.732Z,97401.66
2018-09-08T19:14:43.240Z,97403.83
2018-09-08T19:17:10.676Z,97407.11
2018-09-08T19:19:38.092Z,97402.00
2018-09-08T19:22:05.618Z,97408.44
2018-09-08T19:24:33.102Z,97402.92
2018-09-08T19:27:00.556Z,97409.10
2018-09-08T19:29:28.001Z,97402.34
2018-09-08T19:31:55.518Z,97405.08
2018-09-08T19:34:22.925Z,97406.43
2018-09-08T19:36:50.403Z,97411.23
2018-09-08T19:39:17.945Z,97404.31
2018-09-08T19:41:45.497Z,97413.36
2018-09-08T19:44:12.926Z,97414.60
2018-09-08T19:46:40.407Z,97419.03
2018-09-08T19:49:07.822Z,97423.72
2018-09-08T19:51:35.296Z,97420.48
2018-09-08T19:54:02.769Z,97426.69
2018-09-08T19:56:30.231Z,97425.37
2018-09-08T19:58:57.824Z,97431.95
2018-09-08T20:01:25.306Z,97428.45
2018-09-08T20:03:52.744Z,97426.44
2018-09-08T20:06:20.296Z,97430.96
2018-09-08T20:08:48.013Z,97433.17
2018-09-08T20:11:15.624Z,97438.27
2018-09-08T20:13:43.198Z,97443.73
2018-09-08T20:16:10.787Z,97437.72
2018-09-08T20:18:38.258Z,97442.11
2018-09-08T20:21:05.699Z,97446.14
2018-09-08T20:23:33.156Z,97444.57
2018-09-08T20:26:00.668Z,97460.39
2018-09-08T20:28:28.257Z,97452.16
2018-09-08T20:30:55.761Z,97455.18
2018-09-08T20:33:23.257Z,97454.91
2018-09-08T20:35:50.750Z,97455.80
2018-09-08T20:38:18.203Z,97457.13
2018-09-08T20:40:45.841Z,97458.17
2018-09-08T20:43:13.342Z,97460.91
2018-09-08T20:45:40.851Z,97450.97
2018-09-08T20:48:08.436Z,97449.04
2018-09-08T20:50:35.953Z,97460.91
2018-09-08T20:53:03.423Z,97459.00
2018-09-08T20:55:30.864Z,97465.13
2018-09-08T20:57:58.382Z,97460.86
2018-09-08T21:00:25.879Z,97459.92
2018-09-08T21:02:53.627Z,97468.48
2018-09-08T21:05:21.184Z,97467.25
2018-09-08T21:07:48.731Z,97472.22
2018-09-08T21:10:16.183Z,97474.52
2018-09-08T21:12:43.946Z,97476.12
2018-09-08T21:15:11.398Z,97477.73
2018-09-08T21:17:38.902Z,97475.38
2018-09-08T21:20:06.388Z,97480.84
2018-09-08T21:22:33.864Z,97487.03
2018-09-08T21:25:01.348Z,97488.14
2018-09-08T21:27:28.862Z,97483.41
2018-09-08T21:29:56.414Z,97484.98
2018-09-08T21:32:24.169Z,97493.16
2018-09-08T21:34:51.631Z,97491.53
2018-09-08T21:37:19.183Z,97490.17
2018-09-08T21:39:46.675Z,97495.61
2018-09-08T21:42:14.098Z,97494.50
2018-09-08T21:44:41.594Z,97495.05
2018-09-08T21:47:09.036Z,97495.25
2018-09-08T21:49:36.483Z,97509.44
2018-09-08T21:52:04.024Z,97501.31
2018-09-08T21:54:31.579Z,97503.27
2018-09-08T21:56:59.039Z,97501.13
2018-09-08T21:59:26.467Z,97505.41
2018-09-08T22:01:53.940Z,97506.13
2018-09-08T22:04:21.458Z,97504.17
2018-09-08T22:06:49.087Z,97509.09
2018-09-08T22:09:16.751Z,97512.17
2018-09-08T22:11:44.241Z,97508.24
2018-09-08T22:14:11.700Z,97513.95
2018-09-08T22:16:39.180Z,97515.05
2018-09-08T22:19:06.656Z,97515.63
2018-09-08T22:21:34.126Z,97506.78
2018-09-08T22:24:01.614Z,97511.29
2018-09-08T22:26:29.095Z,97515.28
2018-09-08T22:28:57.409Z,97513.27
2018-09-08T22:31:25.477Z,97518.58
2018-09-08T22:33:53.085Z,97520.12
2018-09-08T22:36:21.963Z,97524.69
2018-09-08T22:38:50.745Z,97526.92
2018-09-08T22:41:18.265Z,97531.39
2018-09-08T22:43:46.022Z,97536.72
2018-09-08T22:46:13.599Z,97534.66
2018-09-08T22:48:41.480Z,97539.41
2018-09-08T22:51:09.035Z,97534.44
2018-09-08T22:53:36.578Z,97539.55
2018-09-08T22:56:06.351Z,97525.35
2018-09-08T22:58:34.028Z,97538.93
2018-09-08T23:01:04.302Z,97537.57
2018-09-08T23:03:33.241Z,97541.59
2018-09-08T23:06:01.573Z,97542.92
2018-09-08T23:08:29.268Z,97542.22
2018-09-08T23:10:56.990Z,97547.11
2018-09-08T23:13:24.673Z,97547.88
2018-09-08T23:15:52.117Z,97545.19
2018-09-08T23:18:19.621Z,97551.47
2018-09-08T23:20:47.262Z,97556.44
2018-09-08T23:23:14.935Z,97552.27
2018-09-08T23:25:42.536Z,97552.90
2018-09-08T23:28:10.115Z,97555.44
2018-09-08T23:30:37.812Z,97557.61
2018-09-08T23:33:05.378Z,97560.77
2018-09-08T23:35:33.201Z,97564.73
2018-09-08T23:38:00.818Z,97562.91
2018-09-08T23:40:28.331Z,97561.70
2018-09-08T23:42:55.851Z,97564.28
2018-09-08T23:45:23.591Z,97564.86
2018-09-08T23:47:51.170Z,97570.17
2018-09-08T23:50:18.748Z,97566.72
2018-09-08T23:52:46.368Z,97571.48
2018-09-08T23:55:13.820Z,97572.23
2018-09-08T23:57:42.142Z,97578.03
